Time;durP1;ratioP1;P1;durP2;ratioP2;P2;SDS_P1;SDS_P2;PMS_P1;PMS_P2;Temp;Humidity;BMP_temperature;BMP_pressure;BME280_temperature;BME280_humidity;BME280_pressure;Samples;Min_cycle;Max_cycle;Signal;HPM_P1;HPM_P2
2022/11/17 00:01:18;;;;;;;1.90;0.60;;;;;;;8.86;81.06;96519.84;5043152;28;20044;-58
2022/11/17 00:03:47;;;;;;;2.55;0.40;;;;;;;8.90;81.42;96517.94;5041636;28;20067;-56
2022/11/17 00:06:15;;;;;;;1.60;0.77;;;;;;;8.92;81.25;96507.53;5042335;28;20041;-57
2022/11/17 00:08:42;;;;;;;1.30;0.60;;;;;;;8.91;81.34;96505.88;5016938;28;20046;-59
2022/11/17 00:11:09;;;;;;;1.52;0.85;;;;;;;8.90;81.23;96497.31;5021340;28;20136;-57
2022/11/17 00:16:22;;;;;;;3.72;0.63;;;;;;;8.84;81.78;96495.03;5039775;28;20498;-57
2022/11/17 00:21:35;;;;;;;2.05;0.52;;;;;;;8.87;81.88;96505.19;5048492;28;20571;-55
2022/11/17 00:24:02;;;;;;;4.88;0.80;;;;;;;8.91;81.89;96504.13;5039335;28;20045;-58
2022/11/17 00:26:31;;;;;;;4.95;0.93;;;;;;;8.90;81.80;96509.34;5036189;28;20547;-55
2022/11/17 00:29:00;;;;;;;4.15;0.98;;;;;;;8.92;81.79;96487.72;5041365;28;20465;-57
2022/11/17 00:34:18;;;;;;;0.55;0.30;;;;;;;8.85;81.69;96486.41;5033953;28;20077;-56
2022/11/17 00:36:48;;;;;;;4.00;0.40;;;;;;;8.90;81.52;96481.81;5037071;28;20508;-58
2022/11/17 00:39:16;;;;;;;1.52;0.65;;;;;;;8.83;81.69;96486.47;5037239;28;20072;-57
2022/11/17 00:41:43;;;;;;;0.90;0.60;;;;;;;8.88;81.20;96478.47;5040959;28;20053;-55
2022/11/17 00:44:10;;;;;;;1.30;0.50;;;;;;;8.91;81.61;96467.19;5037642;28;20080;-56
2022/11/17 00:46:38;;;;;;;2.15;0.38;;;;;;;8.90;82.07;96476.66;5040904;28;20045;-55
2022/11/17 00:49:06;;;;;;;2.78;0.50;;;;;;;8.94;81.31;96464.41;5041008;28;20055;-58
2022/11/17 00:51:34;;;;;;;1.33;0.40;;;;;;;8.88;81.48;96465.56;5036601;28;20167;-56
2022/11/17 00:54:01;;;;;;;1.08;0.40;;;;;;;8.87;81.56;96466.50;5038801;28;20512;-56
2022/11/17 00:56:27;;;;;;;1.35;0.50;;;;;;;8.90;81.38;96463.75;5044339;28;20045;-57
2022/11/17 00:58:54;;;;;;;1.77;0.50;;;;;;;8.93;81.39;96462.75;5046208;28;20531;-56
2022/11/17 01:01:21;;;;;;;2.38;0.80;;;;;;;8.91;81.96;96454.28;5042123;28;20136;-58
2022/11/17 01:03:48;;;;;;;3.42;0.40;;;;;;;8.92;81.57;96455.94;5045333;28;20052;-59
2022/11/17 01:06:18;;;;;;;1.30;0.63;;;;;;;8.82;82.11;96458.16;5045840;28;20072;-59
2022/11/17 01:08:45;;;;;;;1.30;0.65;;;;;;;8.83;81.73;96452.09;5025774;28;20138;-58
2022/11/17 01:11:15;;;;;;;1.52;0.50;;;;;;;8.88;81.56;96455.25;5023815;28;20085;-55
2022/11/17 01:13:44;;;;;;;1.38;0.40;;;;;;;8.83;81.94;96446.94;5020441;28;20133;-55
2022/11/17 01:16:14;;;;;;;3.78;0.32;;;;;;;8.85;81.87;96451.09;5017403;28;20072;-58
2022/11/17 01:18:43;;;;;;;1.67;0.57;;;;;;;8.87;81.93;96443.25;5026570;28;20051;-59
2022/11/17 01:21:13;;;;;;;1.02;0.30;;;;;;;8.77;82.09;96436.91;5042462;28;20132;-59
2022/11/17 01:23:41;;;;;;;1.77;0.60;;;;;;;8.79;81.41;96430.78;5040501;28;20076;-58
2022/11/17 01:26:12;;;;;;;0.60;0.30;;;;;;;8.79;82.01;96428.22;5040303;28;20552;-55
2022/11/17 01:28:40;;;;;;;1.13;0.30;;;;;;;8.73;82.17;96425.94;5042867;28;20127;-58
2022/11/17 01:33:43;;;;;;;1.88;0.80;;;;;;;8.68;82.04;96415.88;5013312;28;20404;-58
2022/11/17 01:36:14;;;;;;;0.93;0.55;;;;;;;8.67;82.33;96416.78;4983084;28;20077;-57
2022/11/17 01:38:41;;;;;;;2.15;0.68;;;;;;;8.61;82.18;96412.78;4982832;28;20138;-60
2022/11/17 01:41:17;;;;;;;1.88;0.63;;;;;;;8.60;82.38;96418.03;4973745;28;20592;-58
2022/11/17 01:43:48;;;;;;;0.38;0.30;;;;;;;8.57;83.10;96420.75;4979390;28;20053;-58
2022/11/17 01:49:18;;;;;;;2.55;0.20;;;;;;;8.59;83.36;96408.63;5061204;28;20395;-57
2022/11/17 01:51:49;;;;;;;1.08;0.35;;;;;;;8.57;83.18;96405.28;5058444;28;20041;-55
2022/11/17 01:54:22;;;;;;;3.05;0.40;;;;;;;8.56;83.04;96406.22;5059003;28;20929;-58
2022/11/17 01:56:52;;;;;;;0.93;0.40;;;;;;;8.58;82.70;96406.97;5058353;28;20059;-58
2022/11/17 01:59:27;;;;;;;0.30;0.25;;;;;;;8.52;82.87;96404.69;5053484;28;20064;-57
2022/11/17 02:01:54;;;;;;;0.75;0.20;;;;;;;8.59;83.17;96401.72;5055075;28;20068;-56
2022/11/17 02:09:42;;;;;;;3.17;1.17;;;;;;;8.54;83.36;96395.16;5045612;28;20406;-58
2022/11/17 02:12:12;;;;;;;3.35;1.13;;;;;;;8.54;84.01;96383.06;5023103;28;20145;-59
2022/11/17 02:14:39;;;;;;;;;;;;;;;8.44;84.24;96387.03;5014741;28;20114;-58
2022/11/17 02:17:07;;;;;;;1.17;1.17;;;;;;;8.39;83.90;96382.13;5016850;28;20004;-57
2022/11/17 02:19:42;;;;;;;0.20;0.10;;;;;;;8.41;83.87;96380.28;5015796;28;20637;-58
2022/11/17 02:30:05;;;;;;;0.88;0.85;;;;;;;8.52;84.50;96376.31;5068786;27;20406;-56
2022/11/17 02:38:39;;;;;;;0.32;0.30;;;;;;;8.43;84.70;96378.47;5085272;27;20410;-57
2022/11/17 02:44:04;;;;;;;2.63;1.17;;;;;;;8.74;83.22;96376.00;5101628;27;20472;-57
2022/11/17 02:51:55;;;;;;;1.90;0.40;;;;;;;8.63;83.93;96383.50;5064391;27;20389;-58
2022/11/17 02:54:25;;;;;;;3.15;1.65;;;;;;;8.46;85.34;96383.47;5035202;28;20565;-57
2022/11/17 02:56:52;;;;;;;2.97;0.70;;;;;;;8.56;84.85;96388.16;5039036;28;20136;-57
2022/11/17 02:59:27;;;;;;;0.70;0.40;;;;;;;8.53;84.63;96388.28;5040872;28;20128;-59
2022/11/17 03:02:08;;;;;;;3.35;1.13;;;;;;;8.53;84.69;96393.44;5037536;28;20079;-58
2022/11/17 03:10:21;;;;;;;1.67;1.58;;;;;;;8.47;85.34;96390.28;5102769;27;20390;-58
2022/11/17 03:15:44;;;;;;;2.53;1.15;;;;;;;8.80;84.49;96398.06;5097979;27;20405;-57
2022/11/17 03:23:35;;;;;;;3.15;1.25;;;;;;;8.62;85.75;96387.84;5059321;27;20398;-58
2022/11/17 03:26:06;;;;;;;1.75;0.80;;;;;;;8.53;86.06;96393.44;5085536;28;20101;-59
2022/11/17 03:28:33;;;;;;;2.00;0.57;;;;;;;8.53;85.64;96389.16;5093593;28;20262;-58
2022/11/17 03:31:03;;;;;;;1.27;0.68;;;;;;;8.58;85.59;96391.50;5097870;28;20118;-56
2022/11/17 03:33:30;;;;;;;;;;;;;;;8.48;86.04;96391.13;5093255;28;20473;-57
2022/11/17 03:36:04;;;;;;;3.15;0.50;;;;;;;8.47;86.53;96392.84;5091848;28;20534;-57
2022/11/17 03:38:36;;;;;;;1.40;1.05;;;;;;;8.53;85.80;96388.28;5095358;28;20120;-56
2022/11/17 03:41:08;;;;;;;1.92;0.52;;;;;;;8.56;86.44;96398.47;5091669;28;20044;-57
2022/11/17 03:43:35;;;;;;;3.22;0.73;;;;;;;8.49;86.52;96388.44;5092033;28;20685;-58
2022/11/17 03:46:09;;;;;;;1.42;0.77;;;;;;;8.58;85.79;96392.31;5090735;28;20055;-59
2022/11/17 03:48:43;;;;;;;1.67;0.95;;;;;;;8.59;85.89;96385.41;5112327;27;20043;-58
2022/11/17 03:51:22;;;;;;;0.93;0.85;;;;;;;8.57;86.21;96394.97;5117296;27;20047;-57
2022/11/17 03:53:51;;;;;;;2.20;0.40;;;;;;;8.54;86.14;96392.56;5115684;28;20122;-59
2022/11/17 03:59:10;;;;;;;2.65;2.55;;;;;;;8.61;86.19;96407.63;5092396;27;20897;-58
2022/11/17 04:01:37;;;;;;;1.85;1.65;;;;;;;8.59;86.35;96413.78;5076826;28;20046;-59
2022/11/17 04:04:03;;;;;;;2.22;2.13;;;;;;;8.64;85.99;96422.09;5073169;28;20557;-57
2022/11/17 04:06:30;;;;;;;4.90;2.97;;;;;;;8.63;86.52;96420.44;5071730;28;20140;-57
2022/11/17 04:08:56;;;;;;;3.50;2.17;;;;;;;8.68;85.98;96418.44;5077106;28;20131;-59
2022/11/17 04:16:56;;;;;;;4.45;2.05;;;;;;;8.71;85.53;96422.59;5073356;28;22031;-57
2022/11/17 04:19:23;;;;;;;3.03;2.45;;;;;;;8.76;85.69;96419.78;5073883;28;20102;-58
2022/11/17 04:21:49;;;;;;;2.20;1.95;;;;;;;8.80;85.78;96431.59;5078560;28;20119;-59
2022/11/17 04:24:17;;;;;;;2.80;2.55;;;;;;;8.78;85.21;96438.59;5073989;28;20080;-55
2022/11/17 04:29:30;;;;;;;4.72;2.83;;;;;;;8.80;85.44;96436.75;5076669;28;20134;-58
2022/11/17 04:31:56;;;;;;;4.82;2.95;;;;;;;8.83;85.48;96441.75;5084070;28;20158;-58
2022/11/17 04:34:23;;;;;;;3.33;2.35;;;;;;;8.86;85.35;96436.44;5089307;28;20044;-58
2022/11/17 04:36:50;;;;;;;4.50;3.20;;;;;;;8.88;85.42;96450.09;5074966;28;20045;-59
2022/11/17 04:39:17;;;;;;;8.30;3.25;;;;;;;8.84;85.65;96446.00;5077633;28;20063;-58
2022/11/17 04:44:31;;;;;;;2.75;2.42;;;;;;;8.85;85.22;96451.09;5076596;28;20072;-59
2022/11/17 04:46:58;;;;;;;3.25;1.23;;;;;;;8.88;85.29;96455.25;5086993;28;20657;-57
2022/11/17 04:49:24;;;;;;;3.50;3.17;;;;;;;8.87;85.45;96459.59;5098954;28;20503;-58
2022/11/17 04:51:52;;;;;;;3.70;2.60;;;;;;;8.88;85.49;96455.25;5096970;28;20116;-57
2022/11/17 04:54:23;;;;;;;3.20;2.70;;;;;;;8.89;85.04;96454.34;5091236;28;20044;-58
2022/11/17 04:56:51;;;;;;;2.88;2.58;;;;;;;8.87;85.12;96453.59;5094847;28;20048;-57
2022/11/17 04:59:18;;;;;;;5.05;3.78;;;;;;;8.88;85.02;96460.41;5076185;28;20123;-55
2022/11/17 05:01:45;;;;;;;5.63;2.90;;;;;;;8.88;85.00;96470.72;5076013;28;20137;-56
2022/11/17 05:04:54;;;;;;;5.63;2.92;;;;;;;8.85;84.83;96465.75;5075600;28;20044;-59
2022/11/17 05:07:01;;;;;;;3.97;2.22;;;;;;;8.82;85.04;96474.47;5072507;28;20151;-55
2022/11/17 05:09:27;;;;;;;4.15;3.00;;;;;;;8.84;84.75;96474.38;5071200;28;20067;-56
2022/11/17 05:14:40;;;;;;;2.45;2.25;;;;;;;8.74;84.50;96474.88;5064427;28;20089;-55
2022/11/17 05:17:08;;;;;;;2.80;2.60;;;;;;;8.79;84.61;96476.38;5063481;28;20139;-56
2022/11/17 05:19:40;;;;;;;2.58;2.33;;;;;;;8.79;84.30;96481.56;5064671;28;20044;-58
2022/11/17 05:24:55;;;;;;;2.78;2.38;;;;;;;8.74;84.67;96484.38;5062086;28;20128;-57
2022/11/17 05:27:23;;;;;;;7.13;1.60;;;;;;;8.72;84.56;96492.19;5064260;28;20486;-59
2022/11/17 05:29:50;;;;;;;4.32;2.55;;;;;;;8.61;85.01;96484.16;5056624;28;20050;-57
2022/11/17 05:32:17;;;;;;;4.47;1.50;;;;;;;8.69;84.26;96494.94;5059210;28;20512;-58
2022/11/17 05:34:44;;;;;;;5.88;3.13;;;;;;;8.69;84.78;96492.38;5059986;28;20051;-57
2022/11/17 05:37:11;;;;;;;6.45;3.33;;;;;;;8.68;84.37;96495.84;5058075;28;20155;-58
2022/11/17 05:39:37;;;;;;;4.40;3.03;;;;;;;8.47;84.50;96488.28;5065211;28;20151;-57
2022/11/17 05:42:04;;;;;;;5.72;3.10;;;;;;;8.60;84.42;96498.84;5057599;28;20059;-58
2022/11/17 05:44:31;;;;;;;5.00;3.17;;;;;;;8.61;84.55;96504.81;5063209;28;20068;-57
2022/11/17 05:46:57;;;;;;;5.00;2.88;;;;;;;8.44;85.29;96509.06;5055302;28;20049;-58
2022/11/17 05:49:24;;;;;;;4.35;3.30;;;;;;;8.56;84.74;96511.97;5060205;28;20141;-59
2022/11/17 05:51:50;;;;;;;4.47;3.03;;;;;;;8.59;84.79;96504.91;5061949;28;20098;-57
2022/11/17 05:54:19;;;;;;;7.43;2.88;;;;;;;8.54;84.47;96509.47;5058514;28;20183;-58
2022/11/17 05:56:51;;;;;;;4.00;3.08;;;;;;;8.41;85.36;96504.06;5056289;28;20156;-56
2022/11/17 06:04:35;;;;;;;2.88;1.50;;;;;;;8.44;85.17;96519.38;5033788;28;20886;-56
2022/11/17 06:07:02;;;;;;;4.65;1.60;;;;;;;8.46;84.73;96527.88;5021498;28;20056;-58
2022/11/17 06:09:40;;;;;;;4.63;1.67;;;;;;;8.41;85.12;96523.88;5015184;28;20049;-59
2022/11/17 06:12:07;;;;;;;2.17;1.38;;;;;;;8.38;85.39;96530.03;5011312;28;20112;-59
2022/11/17 06:14:36;;;;;;;4.70;2.13;;;;;;;8.49;85.04;96522.53;5013515;28;20136;-58
2022/11/17 06:17:08;;;;;;;3.22;2.20;;;;;;;8.52;84.89;96525.91;5014368;28;20054;-58
2022/11/17 06:19:44;;;;;;;3.00;1.20;;;;;;;8.45;84.38;96531.34;5013904;28;20052;-58
2022/11/17 06:22:11;;;;;;;2.58;1.42;;;;;;;8.33;85.08;96531.97;5020135;28;20053;-58
2022/11/17 06:24:41;;;;;;;3.78;1.17;;;;;;;8.34;84.47;96525.91;5014799;28;20049;-56
2022/11/17 06:27:12;;;;;;;3.55;1.70;;;;;;;8.39;85.65;96539.41;5026839;28;20791;-57
2022/11/17 06:29:39;;;;;;;4.13;1.73;;;;;;;8.39;85.13;96539.41;5016133;28;20045;-57
2022/11/17 06:32:13;;;;;;;2.85;1.65;;;;;;;8.44;84.54;96544.34;5015059;28;20612;-57
2022/11/17 06:34:41;;;;;;;4.28;1.50;;;;;;;8.43;84.60;96543.50;5013329;28;20102;-59
2022/11/17 06:37:10;;;;;;;4.45;1.88;;;;;;;8.40;84.57;96537.66;5016465;28;20838;-59
2022/11/17 06:39:36;;;;;;;3.85;2.33;;;;;;;8.51;84.30;96542.28;5015393;28;20053;-56
2022/11/17 06:42:03;;;;;;;4.70;2.13;;;;;;;8.35;84.97;96535.34;5018737;28;20322;-57
2022/11/17 06:44:29;;;;;;;2.88;1.35;;;;;;;8.36;84.83;96542.16;5018687;28;20124;-58
2022/11/17 06:46:56;;;;;;;4.47;1.80;;;;;;;8.38;85.65;96542.06;5019637;28;20184;-53
2022/11/17 06:49:22;;;;;;;3.00;1.90;;;;;;;8.33;84.79;96543.13;5007459;28;20084;-58
2022/11/17 06:51:49;;;;;;;2.67;1.58;;;;;;;8.34;85.22;96546.53;5005392;28;20078;-58
2022/11/17 06:54:16;;;;;;;2.15;1.48;;;;;;;8.26;85.85;96543.50;5015703;28;20077;-56
2022/11/17 06:56:42;;;;;;;2.75;1.08;;;;;;;8.24;85.78;96548.75;5019507;28;20132;-57
2022/11/17 06:59:09;;;;;;;9.18;1.63;;;;;;;8.24;85.29;96548.75;5020003;28;20579;-58
2022/11/17 07:01:36;;;;;;;4.38;2.15;;;;;;;8.28;84.92;96554.59;5011814;28;20450;-59
2022/11/17 07:04:03;;;;;;;3.13;1.33;;;;;;;8.17;85.19;96553.38;5012291;28;20064;-58
2022/11/17 07:06:31;;;;;;;4.65;1.60;;;;;;;8.27;85.40;96552.94;5010525;28;20077;-56
2022/11/17 07:08:57;;;;;;;4.07;2.67;;;;;;;8.13;86.10;96566.47;5015130;28;20045;-56
2022/11/17 07:11:24;;;;;;;2.58;1.58;;;;;;;8.16;86.45;96554.28;5014331;28;20046;-58
2022/11/17 07:13:50;;;;;;;5.43;1.85;;;;;;;8.15;86.34;96557.78;5015539;28;20086;-58
2022/11/17 07:16:19;;;;;;;6.40;2.50;;;;;;;8.22;85.80;96577.19;5001923;28;20081;-57
2022/11/17 07:18:49;;;;;;;8.02;1.75;;;;;;;8.31;85.35;96575.88;5004523;28;20466;-57
2022/11/17 07:21:16;;;;;;;2.67;1.75;;;;;;;8.20;86.01;96579.00;5002320;28;20108;-57
2022/11/17 07:23:44;;;;;;;2.20;1.25;;;;;;;8.20;85.05;96584.16;5002820;28;20726;-57
2022/11/17 07:26:12;;;;;;;3.03;1.80;;;;;;;8.21;85.17;96579.84;4999814;28;20077;-59
2022/11/17 07:28:38;;;;;;;5.22;2.10;;;;;;;8.23;85.12;96591.75;5004348;28;20584;-57
2022/11/17 07:31:07;;;;;;;4.65;2.80;;;;;;;8.29;85.00;96593.19;5003991;28;20100;-55
2022/11/17 07:33:35;;;;;;;3.33;2.33;;;;;;;8.23;85.62;96578.88;4995884;28;20481;-56
2022/11/17 07:36:04;;;;;;;4.57;2.17;;;;;;;8.16;85.44;96598.13;4991612;28;20112;-57
2022/11/17 07:38:33;;;;;;;4.15;2.47;;;;;;;8.21;85.47;96606.44;4999895;28;20045;-56
2022/11/17 07:41:01;;;;;;;4.43;1.98;;;;;;;8.26;85.38;96605.38;4998962;28;20412;-57
2022/11/17 07:43:28;;;;;;;5.93;2.40;;;;;;;8.28;84.60;96606.97;4998259;28;20105;-56
2022/11/17 07:45:55;;;;;;;7.20;2.50;;;;;;;8.29;85.10;96597.50;5000642;28;20074;-56
2022/11/17 07:48:22;;;;;;;4.38;1.98;;;;;;;8.21;84.62;96590.16;4998803;28;20744;-56
2022/11/17 07:50:49;;;;;;;4.32;2.50;;;;;;;8.22;85.26;96600.41;4994716;28;20077;-56
2022/11/17 07:53:16;;;;;;;2.30;1.70;;;;;;;8.14;84.94;96602.50;4990112;28;20069;-58
2022/11/17 07:55:42;;;;;;;3.72;1.85;;;;;;;8.19;85.43;96608.28;4995109;28;20046;-55
2022/11/17 07:58:09;;;;;;;4.95;2.40;;;;;;;8.07;85.26;96609.69;4998592;28;20046;-58
2022/11/17 08:00:35;;;;;;;3.03;2.25;;;;;;;8.05;85.43;96615.84;4993874;28;20128;-59
2022/11/17 08:03:03;;;;;;;2.95;2.65;;;;;;;8.19;85.18;96613.44;4995475;28;20146;-58
2022/11/17 08:05:34;;;;;;;2.53;1.48;;;;;;;8.19;84.77;96618.59;4996059;28;20572;-59
2022/11/17 08:08:08;;;;;;;3.10;1.52;;;;;;;8.16;84.82;96613.56;5005771;28;20447;-59
2022/11/17 08:10:35;;;;;;;4.53;1.13;;;;;;;8.15;84.91;96626.53;4993103;28;20058;-60
2022/11/17 08:13:02;;;;;;;4.45;2.55;;;;;;;8.27;84.66;96625.94;4995406;28;20073;-58
2022/11/17 08:15:29;;;;;;;5.43;2.15;;;;;;;8.23;85.21;96614.97;5003004;28;20116;-58
2022/11/17 08:17:58;;;;;;;4.10;2.22;;;;;;;8.09;84.86;96623.34;4992260;28;20053;-59
2022/11/17 08:20:26;;;;;;;5.57;2.28;;;;;;;8.18;84.43;96644.44;4990726;28;20621;-59
2022/11/17 08:22:53;;;;;;;3.17;1.42;;;;;;;8.18;84.72;96641.88;4998918;28;20103;-58
2022/11/17 08:25:22;;;;;;;3.03;1.90;;;;;;;8.23;85.43;96640.72;4995174;28;20050;-59
2022/11/17 08:27:50;;;;;;;2.42;0.93;;;;;;;8.16;84.80;96633.34;4994373;28;20129;-58
2022/11/17 08:30:19;;;;;;;4.53;2.65;;;;;;;8.19;85.22;96633.22;4992803;28;20367;-60
2022/11/17 08:32:48;;;;;;;2.75;1.63;;;;;;;8.22;84.71;96654.53;4997666;28;20076;-59
2022/11/17 08:35:16;;;;;;;4.07;2.10;;;;;;;8.27;84.37;96653.50;4997036;28;20061;-57
2022/11/17 08:37:42;;;;;;;2.50;1.38;;;;;;;8.19;85.13;96654.69;4998931;28;20153;-57
2022/11/17 08:40:10;;;;;;;4.15;1.88;;;;;;;8.25;84.63;96650.13;5002453;28;20081;-58
2022/11/17 08:42:37;;;;;;;3.65;1.75;;;;;;;8.25;85.14;96663.88;4999279;28;20086;-56
2022/11/17 08:45:05;;;;;;;5.57;2.30;;;;;;;8.18;84.90;96645.25;5003000;28;20065;-57
2022/11/17 08:47:33;;;;;;;5.20;1.75;;;;;;;8.18;85.43;96658.16;5002886;28;20073;-59
2022/11/17 08:49:59;;;;;;;3.83;1.67;;;;;;;8.21;84.81;96670.91;5002526;28;20076;-57
2022/11/17 08:52:27;;;;;;;2.28;0.90;;;;;;;8.17;84.37;96656.50;5002994;28;20500;-57
2022/11/17 08:54:54;;;;;;;2.83;1.50;;;;;;;8.21;84.34;96668.31;5000736;28;20081;-59
2022/11/17 08:57:20;;;;;;;2.58;1.17;;;;;;;8.16;85.28;96662.56;5002606;28;20136;-59
2022/11/17 08:59:48;;;;;;;1.67;1.08;;;;;;;8.16;85.18;96670.28;5002988;28;20123;-58
2022/11/17 09:02:15;;;;;;;1.95;1.13;;;;;;;8.16;85.01;96654.81;4996839;28;20107;-58
2022/11/17 09:04:44;;;;;;;1.98;1.67;;;;;;;8.19;84.91;96674.47;5000120;28;20046;-58
2022/11/17 09:07:11;;;;;;;2.30;1.13;;;;;;;8.13;85.15;96654.97;4997646;28;20073;-58
2022/11/17 09:09:38;;;;;;;2.70;1.42;;;;;;;8.19;84.46;96674.47;4999112;28;20073;-58
2022/11/17 09:12:05;;;;;;;3.13;1.05;;;;;;;8.19;85.01;96684.78;4999263;28;20128;-57
2022/11/17 09:14:32;;;;;;;2.63;1.23;;;;;;;8.16;84.71;96669.44;4992693;28;20690;-59
2022/11/17 09:16:58;;;;;;;1.73;1.38;;;;;;;8.13;84.15;96675.59;4999023;28;20481;-57
2022/11/17 09:19:25;;;;;;;1.15;0.73;;;;;;;8.16;85.03;96679.75;5004186;28;20216;-58
2022/11/17 09:21:52;;;;;;;2.38;1.23;;;;;;;8.18;84.25;96673.63;5000668;28;20050;-58
2022/11/17 09:24:18;;;;;;;1.83;0.90;;;;;;;8.11;84.77;96703.19;5002778;28;22664;-59
2022/11/17 09:26:45;;;;;;;2.33;1.42;;;;;;;8.13;84.60;96685.06;4997715;28;20128;-58
2022/11/17 09:29:12;;;;;;;2.85;1.65;;;;;;;8.14;84.11;96684.97;5001820;28;20142;-56
2022/11/17 09:31:39;;;;;;;2.22;0.85;;;;;;;8.12;84.97;96673.94;5000617;28;20121;-58
2022/11/17 09:34:06;;;;;;;1.23;1.05;;;;;;;8.06;85.16;96705.13;4998576;28;20046;-57
2022/11/17 09:36:33;;;;;;;2.50;1.42;;;;;;;8.12;84.91;96704.00;4999640;28;20053;-57
2022/11/17 09:39:00;;;;;;;2.33;0.75;;;;;;;8.18;84.40;96688.28;5001922;28;20077;-55
2022/11/17 09:47:33;;;;;;;1.65;0.82;;;;;;;8.07;85.11;96720.53;5012271;28;20416;-59
2022/11/17 09:50:28;;;;;;;2.47;1.27;;;;;;;8.19;85.01;96733.75;4968355;28;20140;-57
2022/11/17 09:55:52;;;;;;;3.13;1.90;;;;;;;8.15;84.82;96721.91;5035158;28;20946;-55
2022/11/17 09:58:57;;;;;;;2.40;1.27;;;;;;;8.12;84.02;96719.47;4994499;28;20423;-55
2022/11/17 10:01:27;;;;;;;2.88;1.67;;;;;;;8.16;84.80;96736.47;4996629;28;20051;-57
2022/11/17 10:03:57;;;;;;;2.80;2.47;;;;;;;8.20;84.93;96738.84;4999783;28;20749;-55
2022/11/17 10:06:27;;;;;;;1.77;1.40;;;;;;;8.13;85.08;96732.28;4997727;28;20116;-59
2022/11/17 10:09:03;;;;;;;2.33;2.13;;;;;;;8.07;84.88;96740.34;4997525;28;20049;-60
2022/11/17 10:11:32;;;;;;;2.15;1.95;;;;;;;8.14;84.04;96746.84;4995742;28;20042;-59
2022/11/17 10:16:42;;;;;;;2.17;1.98;;;;;;;8.03;83.70;96759.38;5077272;27;21138;-58
2022/11/17 10:19:14;;;;;;;;;;;;;;;7.95;84.52;96768.34;5054162;28;20136;-59
2022/11/17 10:21:41;;;;;;;2.05;1.95;;;;;;;8.03;85.14;96773.13;5064535;28;19920;-58
2022/11/17 10:24:08;;;;;;;2.03;1.00;;;;;;;8.15;83.75;96765.75;5103943;28;20082;-57
2022/11/17 10:26:50;;;;;;;5.20;2.47;;;;;;;8.17;83.50;96775.06;5104489;28;20585;-59
2022/11/17 10:29:22;;;;;;;1.55;0.77;;;;;;;8.13;84.70;96778.69;5101358;28;20036;-59
2022/11/17 10:31:48;;;;;;;2.70;2.10;;;;;;;8.14;84.33;96785.50;5098166;28;20047;-59
2022/11/17 10:34:37;;;;;;;1.05;0.73;;;;;;;8.12;83.67;96795.06;5092585;28;20510;-57
2022/11/17 10:37:29;;;;;;;2.88;2.40;;;;;;;8.17;83.77;96790.53;5097745;28;20119;-59
2022/11/17 10:40:18;;;;;;;2.47;2.28;;;;;;;8.10;84.02;96799.44;5099558;28;20067;-58
2022/11/17 10:45:50;;;;;;;1.33;0.82;;;;;;;8.19;84.61;96803.38;5061705;27;20491;-59
2022/11/17 10:53:40;;;;;;;1.75;0.60;;;;;;;8.25;83.96;96809.97;5020739;28;20915;-59
2022/11/17 10:56:16;;;;;;;5.05;1.20;;;;;;;8.32;84.10;96822.53;5016211;28;20049;-59
2022/11/17 11:01:34;;;;;;;2.63;1.60;;;;;;;8.68;82.58;96831.25;5047823;27;20407;-56
2022/11/17 11:04:03;;;;;;;4.22;3.03;;;;;;;8.46;83.28;96827.06;5025000;28;20043;-59
2022/11/17 11:06:32;;;;;;;2.55;2.33;;;;;;;8.35;83.68;96824.97;5039452;28;20072;-57
2022/11/17 11:09:05;;;;;;;2.95;1.38;;;;;;;8.44;84.08;96839.19;5037045;28;20657;-57
2022/11/17 11:16:55;;;;;;;3.30;1.35;;;;;;;8.59;83.24;96847.16;5025968;27;20402;-58
2022/11/17 11:19:22;;;;;;;4.18;1.70;;;;;;;8.62;83.86;96847.03;5002108;28;20140;-58
2022/11/17 11:24:43;;;;;;;5.95;3.03;;;;;;;8.65;83.25;96836.53;5038425;27;20410;-57
2022/11/17 11:33:04;;;;;;;1.75;1.25;;;;;;;8.63;83.27;96853.84;5023363;28;20767;-58
2022/11/17 11:38:47;;;;;;;4.50;2.35;;;;;;;8.70;83.78;96847.50;5029751;27;20405;-56
2022/11/17 11:52:09;;;;;;;3.88;0.85;;;;;;;8.83;83.12;96857.25;5061756;27;20401;-58
2022/11/17 11:54:54;;;;;;;5.10;3.40;;;;;;;8.85;83.23;96858.03;5021942;28;22599;-58
2022/11/17 11:57:30;;;;;;;3.45;1.25;;;;;;;8.87;82.97;96866.50;5019877;28;20145;-57
2022/11/17 12:00:01;;;;;;;2.60;0.90;;;;;;;8.90;82.79;96858.63;5023985;28;20132;-58
2022/11/17 12:10:35;;;;;;;2.28;2.08;;;;;;;8.89;82.62;96864.69;5074011;27;20397;-57
2022/11/17 12:13:04;;;;;;;2.97;2.13;;;;;;;8.93;82.52;96866.22;5037844;28;20434;-56
2022/11/17 12:15:33;;;;;;;3.28;1.00;;;;;;;8.96;82.68;96873.84;5037373;28;20073;-54
2022/11/17 12:23:51;;;;;;;2.80;1.67;;;;;;;8.93;82.35;96876.56;5042198;28;20393;-56
2022/11/17 12:26:21;;;;;;;3.88;2.20;;;;;;;8.97;82.71;96877.22;5022659;27;20561;-58
2022/11/17 12:28:47;;;;;;;3.17;2.90;;;;;;;8.94;82.85;96888.53;5018768;28;20076;-58
2022/11/17 12:31:42;;;;;;;2.65;2.33;;;;;;;8.92;81.96;96887.75;5017676;28;20133;-58
2022/11/17 12:34:21;;;;;;;2.40;2.20;;;;;;;8.95;82.46;96890.22;5016426;28;20521;-58
2022/11/17 12:37:25;;;;;;;5.07;2.45;;;;;;;8.95;82.29;96889.38;5017871;28;20073;-58
2022/11/17 12:39:57;;;;;;;3.53;2.75;;;;;;;9.00;82.41;96893.44;5015391;28;20494;-59
2022/11/17 12:42:25;;;;;;;5.00;2.55;;;;;;;9.05;82.38;96903.50;5018697;28;20105;-59
2022/11/17 12:45:05;;;;;;;3.97;3.67;;;;;;;9.00;82.88;96893.44;5020752;28;20053;-58
2022/11/17 12:47:35;;;;;;;2.38;2.20;;;;;;;9.02;82.38;96895.09;5017320;28;20073;-57
2022/11/17 13:06:24;;;;;;;4.18;1.77;;;;;;;9.16;82.43;96907.34;5046256;28;20403;-58
2022/11/17 13:09:10;;;;;;;4.07;2.33;;;;;;;9.18;82.33;96915.88;5020982;28;20135;-56
2022/11/17 13:11:37;;;;;;;5.30;1.33;;;;;;;9.14;82.60;96920.31;5009185;28;20049;-57
2022/11/17 13:14:19;;;;;;;4.28;2.13;;;;;;;9.14;82.68;96912.56;5015575;28;20093;-58
2022/11/17 13:16:48;;;;;;;2.92;1.35;;;;;;;9.15;82.72;96919.41;5012810;28;20069;-59
2022/11/17 13:19:36;;;;;;;6.15;2.53;;;;;;;9.14;82.25;96925.50;5014144;28;20077;-57
2022/11/17 13:22:13;;;;;;;1.90;0.77;;;;;;;9.15;82.37;96922.00;5021310;28;20093;-58
2022/11/17 13:24:42;;;;;;;4.25;1.63;;;;;;;9.21;82.51;96919.13;5015811;28;20080;-58
2022/11/17 13:27:29;;;;;;;5.07;1.30;;;;;;;9.21;83.05;96926.03;5019479;28;20076;-58
2022/11/17 13:30:20;;;;;;;1.42;0.82;;;;;;;9.20;82.77;96921.78;4989702;28;20644;-59
2022/11/17 13:32:47;;;;;;;3.60;1.60;;;;;;;9.26;82.40;96930.06;4989825;28;20062;-59
2022/11/17 13:35:23;;;;;;;3.95;1.58;;;;;;;9.31;82.35;96932.44;5008413;28;20081;-58
2022/11/17 13:40:42;;;;;;;4.25;1.92;;;;;;;9.36;82.59;96940.78;5015578;28;20757;-57
2022/11/17 13:43:12;;;;;;;5.10;1.85;;;;;;;9.38;82.69;96948.47;4995766;28;20121;-59
2022/11/17 13:45:42;;;;;;;5.97;2.45;;;;;;;9.36;82.69;96947.72;4993171;28;20120;-59
2022/11/17 13:48:32;;;;;;;4.53;1.70;;;;;;;9.32;82.38;96941.84;4994237;28;20464;-59
2022/11/17 13:54:00;;;;;;;6.57;4.18;;;;;;;9.36;82.27;96952.88;5018907;28;20414;-59
2022/11/17 13:56:38;;;;;;;6.07;3.58;;;;;;;9.34;82.19;96941.78;5016539;28;20130;-59
2022/11/17 13:59:22;;;;;;;7.45;4.68;;;;;;;9.34;82.26;96947.78;5012060;28;20142;-58
2022/11/17 14:07:51;;;;;;;21.15;7.45;;;;;;;9.60;80.87;96957.78;5075441;27;20986;-57
2022/11/17 14:13:17;;;;;;;5.93;2.45;;;;;;;9.29;81.66;96947.16;5109625;27;20750;-57
2022/11/17 14:15:51;;;;;;;7.93;3.22;;;;;;;9.29;81.73;96954.09;5081267;28;20076;-58
2022/11/17 14:21:09;;;;;;;12.38;4.53;;;;;;;9.31;81.66;96949.66;5114876;27;20912;-58
2022/11/17 14:23:36;;;;;;;13.32;3.10;;;;;;;9.28;82.02;96958.41;5084885;27;20068;-58
2022/11/17 14:26:03;;;;;;;5.82;2.45;;;;;;;9.28;81.92;96960.16;5089008;28;20044;-58
2022/11/17 14:28:30;;;;;;;4.65;1.65;;;;;;;9.30;82.13;96966.09;5081077;28;20064;-57
2022/11/17 14:30:56;;;;;;;8.38;3.45;;;;;;;9.32;81.85;96956.53;5080058;28;20419;-56
2022/11/17 14:33:23;;;;;;;4.88;2.20;;;;;;;9.28;81.93;96952.41;5083570;28;20050;-56
2022/11/17 14:35:53;;;;;;;11.95;5.50;;;;;;;9.26;81.94;96955.88;5084263;28;20579;-59
2022/11/17 14:38:21;;;;;;;13.80;5.45;;;;;;;9.31;81.83;96957.41;5080071;28;20171;-57
2022/11/17 14:40:50;;;;;;;8.25;4.97;;;;;;;9.29;81.96;96959.25;5084812;28;20090;-59
2022/11/17 14:43:18;;;;;;;6.68;3.58;;;;;;;9.26;81.79;96961.06;5084500;28;20094;-58
2022/11/17 14:45:44;;;;;;;3.85;1.52;;;;;;;9.26;81.72;96952.50;5082339;28;20064;-57
2022/11/17 14:48:11;;;;;;;7.15;1.80;;;;;;;9.26;81.25;96955.88;5071111;28;20163;-57
2022/11/17 14:50:44;;;;;;;5.30;1.58;;;;;;;9.25;81.40;96949.06;5050577;28;20140;-59
2022/11/17 14:53:11;;;;;;;3.00;1.38;;;;;;;9.29;81.32;96959.25;5037422;28;20045;-57